createdAt,value
2019-03-24T00:01:25.305Z,4.03
2019-03-24T00:04:10.183Z,3.80
2019-03-24T00:06:42.344Z,4.03
2019-03-24T00:09:18.550Z,4.10
2019-03-24T00:11:52.673Z,4.37
2019-03-24T00:14:39.631Z,3.80
2019-03-24T00:17:11.530Z,4.10
2019-03-24T00:19:50.420Z,3.90
2019-03-24T00:22:25.140Z,3.50
2019-03-24T00:24:57.048Z,3.83
2019-03-24T00:27:31.703Z,4.00
2019-03-24T00:30:39.772Z,4.07
2019-03-24T00:33:09.053Z,4.00
2019-03-24T00:35:48.705Z,4.17
2019-03-24T00:38:27.238Z,3.87
2019-03-24T00:41:02.253Z,4.43
2019-03-24T00:43:38.990Z,3.90
2019-03-24T00:46:10.646Z,4.03
2019-03-24T00:48:43.569Z,4.23
2019-03-24T00:51:15.568Z,4.40
2019-03-24T00:53:55.897Z,4.37
2019-03-24T00:56:36.816Z,4.67
2019-03-24T00:59:18.771Z,4.77
2019-03-24T01:01:57.293Z,4.73
2019-03-24T01:04:41.055Z,4.77
2019-03-24T01:07:42.267Z,4.90
2019-03-24T01:10:19.803Z,5.00
2019-03-24T01:13:48.406Z,4.23
2019-03-24T01:16:39.346Z,4.80
2019-03-24T01:19:32.786Z,5.03
2019-03-24T01:22:27.427Z,4.70
2019-03-24T01:25:07.895Z,4.67
2019-03-24T01:28:35.183Z,4.63
2019-03-24T01:31:50.469Z,4.80
2019-03-24T01:34:19.775Z,4.13
2019-03-24T01:37:15.379Z,4.23
2019-03-24T01:40:08.858Z,4.13
2019-03-24T01:42:55.829Z,4.40
2019-03-24T01:46:13.954Z,4.97
2019-03-24T01:48:58.504Z,4.77
2019-03-24T01:52:29.136Z,4.47
2019-03-24T01:56:01.002Z,4.93
2019-03-24T01:58:37.313Z,3.83
2019-03-24T02:01:39.985Z,3.93
2019-03-24T02:04:45.024Z,3.97
2019-03-24T02:07:31.636Z,3.87
2019-03-24T02:10:06.430Z,3.60
2019-03-24T02:12:58.295Z,3.70
2019-03-24T02:15:50.992Z,4.33
2019-03-24T02:19:26.150Z,4.37
2019-03-24T02:22:23.386Z,3.50
2019-03-24T02:24:51.142Z,3.93
2019-03-24T02:27:45.390Z,3.67
2019-03-24T02:30:27.258Z,3.67
2019-03-24T02:33:51.639Z,3.87
2019-03-24T02:36:24.014Z,2.63
2019-03-24T02:39:41.628Z,3.45
2019-03-24T02:44:16.001Z,3.10
2019-03-24T02:45:51.044Z,3.10
2019-03-24T02:48:32.978Z,2.73
2019-03-24T02:51:29.622Z,2.47
2019-03-24T02:54:09.980Z,3.37
2019-03-24T02:56:54.963Z,2.87
2019-03-24T03:03:11.479Z,2.47
2019-03-24T03:06:23.567Z,3.20
2019-03-24T03:09:20.867Z,2.73
2019-03-24T03:12:03.228Z,3.23
2019-03-24T03:14:43.536Z,2.93
2019-03-24T03:17:47.804Z,3.23
2019-03-24T03:20:26.503Z,3.90
2019-03-24T03:23:02.166Z,2.83
2019-03-24T03:25:52.757Z,3.07
2019-03-24T03:28:59.772Z,3.07
2019-03-24T03:31:43.790Z,2.40
2019-03-24T03:34:20.809Z,3.10
2019-03-24T03:37:29.078Z,2.67
2019-03-24T03:40:08.653Z,2.70
2019-03-24T03:43:13.509Z,2.70
2019-03-24T03:45:45.424Z,2.47
2019-03-24T03:48:37.254Z,2.53
2019-03-24T03:51:18.640Z,2.27
2019-03-24T03:53:55.089Z,2.50
2019-03-24T03:56:47.246Z,3.00
2019-03-24T03:59:15.278Z,2.10
2019-03-24T04:01:56.391Z,2.47
2019-03-24T04:04:31.703Z,2.43
2019-03-24T04:07:10.220Z,2.33
2019-03-24T04:09:45.113Z,2.57
2019-03-24T04:12:29.929Z,2.67
2019-03-24T04:15:20.023Z,2.27
2019-03-24T04:17:53.747Z,2.10
2019-03-24T04:20:34.764Z,2.20
2019-03-24T04:23:30.058Z,2.73
2019-03-24T04:26:01.823Z,2.80
2019-03-24T04:28:48.434Z,2.70
2019-03-24T04:31:34.303Z,2.30
2019-03-24T04:34:20.359Z,2.93
2019-03-24T04:37:13.484Z,2.40
2019-03-24T04:39:48.546Z,2.77
2019-03-24T04:42:23.921Z,2.80
2019-03-24T04:45:18.324Z,2.43
2019-03-24T04:48:09.100Z,3.40
2019-03-24T04:50:31.816Z,4.00
2019-03-24T04:53:20.802Z,2.70
2019-03-24T04:56:30.543Z,3.20
2019-03-24T04:59:04.274Z,2.63
2019-03-24T05:02:06.277Z,3.40
2019-03-24T05:05:36.548Z,3.23
2019-03-24T05:08:27.099Z,3.40
2019-03-24T05:11:34.330Z,3.30
2019-03-24T05:14:33.449Z,3.60
2019-03-24T05:18:00.574Z,3.53
2019-03-24T05:20:43.899Z,3.50
2019-03-24T05:23:51.966Z,3.37
2019-03-24T05:26:26.785Z,3.80
2019-03-24T05:28:58.925Z,3.50
2019-03-24T05:31:59.843Z,4.27
2019-03-24T05:34:31.653Z,3.63
2019-03-24T05:40:55.423Z,3.83
2019-03-24T05:43:34.717Z,3.27
2019-03-24T05:46:37.148Z,4.08
2019-03-24T05:49:34.074Z,4.50
2019-03-24T05:52:05.743Z,4.53
2019-03-24T05:54:40.643Z,3.87
2019-03-24T05:57:12.457Z,3.70
2019-03-24T05:59:48.182Z,4.03
2019-03-24T06:02:33.159Z,4.73
2019-03-24T06:05:13.393Z,4.37
2019-03-24T06:07:46.993Z,4.80
2019-03-24T06:10:21.234Z,3.77
2019-03-24T06:12:55.407Z,4.40
2019-03-24T06:15:41.193Z,4.23
2019-03-24T06:18:18.843Z,4.60
2019-03-24T06:20:52.391Z,4.90
2019-03-24T06:23:25.986Z,5.07
2019-03-24T06:26:04.384Z,5.37
2019-03-24T06:28:39.999Z,5.50
2019-03-24T06:31:14.417Z,4.37
2019-03-24T06:33:49.232Z,4.77
2019-03-24T06:36:39.513Z,5.30
2019-03-24T06:39:14.882Z,5.83
2019-03-24T06:41:46.689Z,6.40
2019-03-24T06:44:27.741Z,5.80
2019-03-24T06:46:59.177Z,5.57
2019-03-24T06:49:31.071Z,5.37
2019-03-24T06:52:09.507Z,5.50
2019-03-24T06:55:04.811Z,6.17
2019-03-24T06:57:36.654Z,5.93
2019-03-24T07:00:12.558Z,6.37
2019-03-24T07:02:55.007Z,7.57
2019-03-24T07:05:40.092Z,6.87
2019-03-24T07:08:30.452Z,7.30
2019-03-24T07:11:10.509Z,6.20
2019-03-24T07:13:39.164Z,5.93
2019-03-24T07:16:19.548Z,5.67
2019-03-24T07:19:06.492Z,4.73
2019-03-24T07:21:53.253Z,6.37
2019-03-24T07:24:25.101Z,6.30
2019-03-24T07:27:21.176Z,6.17
2019-03-24T07:30:38.261Z,6.63
2019-03-24T07:33:38.648Z,6.33
2019-03-24T07:36:46.503Z,6.87
2019-03-24T07:39:43.822Z,5.53
2019-03-24T07:42:58.782Z,6.13
2019-03-24T07:46:10.643Z,7.23
2019-03-24T07:49:34.762Z,6.50
2019-03-24T07:53:13.312Z,6.90
2019-03-24T08:00:24.693Z,7.47
2019-03-24T08:03:29.896Z,7.00
2019-03-24T08:06:16.955Z,7.00
2019-03-24T08:13:53.338Z,7.30
2019-03-24T08:17:49.050Z,8.97
2019-03-24T08:20:27.242Z,8.03
2019-03-24T08:35:26.372Z,7.83
2019-03-24T08:42:32.516Z,7.53
2019-03-24T08:45:15.119Z,8.50
2019-03-24T11:29:46.364Z,2.87
2019-03-24T11:48:45.769Z,2.73
2019-03-24T14:59:58.701Z,2.63
2019-03-24T15:02:30.238Z,2.30
2019-03-24T15:05:11.045Z,2.67
2019-03-24T15:07:44.652Z,2.40
2019-03-24T15:10:16.719Z,2.67
2019-03-24T15:12:54.347Z,2.80
2019-03-24T15:15:26.858Z,2.50
2019-03-24T15:17:58.264Z,2.43
2019-03-24T15:20:38.864Z,3.27
2019-03-24T15:23:10.357Z,3.03
2019-03-24T15:25:41.799Z,2.53
2019-03-24T15:28:13.267Z,2.70
2019-03-24T15:30:44.985Z,2.50
2019-03-24T15:33:16.408Z,2.50
2019-03-24T15:35:47.921Z,1.93
2019-03-24T15:38:19.365Z,2.20
2019-03-24T15:40:51.008Z,1.93
2019-03-24T15:43:22.507Z,2.17
2019-03-24T15:45:53.958Z,2.10
2019-03-24T15:48:25.389Z,2.20
2019-03-24T15:50:56.822Z,2.40
2019-03-24T15:53:28.356Z,2.10
2019-03-24T15:55:59.857Z,2.43
2019-03-24T15:58:31.383Z,2.37
2019-03-24T16:01:03.058Z,1.53
2019-03-24T16:03:34.501Z,1.70
2019-03-24T16:06:05.960Z,1.97
2019-03-24T16:08:37.382Z,1.70
2019-03-24T16:11:08.858Z,1.60
2019-03-24T16:13:40.308Z,1.73
2019-03-24T16:16:11.820Z,1.23
2019-03-24T16:18:43.212Z,1.57
2019-03-24T16:21:14.751Z,1.53
2019-03-24T16:23:46.582Z,1.90
2019-03-24T16:26:18.039Z,1.40
2019-03-24T16:28:49.897Z,1.27
2019-03-24T16:31:21.474Z,1.20
2019-03-24T16:33:52.938Z,1.53
2019-03-24T16:36:24.395Z,1.70
2019-03-24T16:39:03.579Z,1.50
2019-03-24T16:41:29.136Z,1.40
2019-03-24T16:44:01.140Z,1.60
2019-03-24T16:46:47.636Z,1.67
2019-03-24T16:53:01.701Z,1.47
2019-03-24T16:59:42.581Z,1.53
2019-03-24T17:03:13.128Z,1.63
2019-03-24T17:06:10.175Z,1.70
2019-03-24T17:09:19.320Z,1.83
2019-03-24T17:12:30.574Z,1.83
2019-03-24T17:15:29.660Z,1.60
2019-03-24T17:18:22.201Z,2.03
2019-03-24T17:21:15.985Z,1.60
2019-03-24T17:24:10.467Z,1.70
2019-03-24T17:26:46.733Z,1.50
2019-03-24T17:29:34.534Z,1.13
2019-03-24T17:32:11.583Z,1.40
2019-03-24T17:34:47.498Z,1.50
2019-03-24T17:37:25.340Z,1.53
2019-03-24T17:40:05.213Z,1.20
2019-03-24T17:42:40.825Z,1.20
2019-03-24T17:45:19.539Z,1.07
2019-03-24T17:48:00.076Z,1.20
2019-03-24T17:50:36.401Z,1.40
2019-03-24T17:53:14.039Z,1.63
2019-03-24T17:55:50.545Z,1.60
2019-03-24T17:58:25.119Z,1.53
2019-03-24T18:00:59.269Z,1.30
2019-03-24T18:03:37.852Z,1.50
2019-03-24T18:06:10.154Z,1.37
2019-03-24T18:08:45.208Z,1.37
2019-03-24T18:11:34.612Z,1.40
2019-03-24T18:14:12.159Z,1.57
2019-03-24T18:17:35.407Z,1.50
2019-03-24T18:24:30.223Z,1.63
2019-03-24T18:26:56.286Z,1.90
2019-03-24T18:33:07.118Z,1.60
2019-03-24T18:35:39.194Z,1.80
2019-03-24T18:39:20.371Z,1.40
2019-03-24T18:41:17.563Z,1.60
2019-03-24T18:44:04.526Z,1.80
2019-03-24T18:47:18.070Z,1.60
2019-03-24T18:50:16.480Z,1.87
2019-03-24T18:53:18.890Z,2.43
2019-03-24T18:56:15.401Z,2.50
2019-03-24T18:59:17.483Z,2.20
2019-03-24T19:03:35.752Z,1.70
2019-03-24T19:11:07.815Z,1.77
2019-03-24T19:18:50.719Z,1.40
2019-03-24T19:23:03.040Z,2.00
2019-03-24T19:26:21.230Z,2.27
2019-03-24T19:29:38.203Z,1.80
